sensor_id;sensor_type;location;lat;lon;timestamp;pressure;altitude;pressure_sealevel;temperature;humidity
51313;BME280;37397;53.226;10.400;2023-05-14T00:00:21;101626.09;;;17.41;45.36
51313;BME280;37397;53.226;10.400;2023-05-14T00:02:47;101622.38;;;17.35;45.42
51313;BME280;37397;53.226;10.400;2023-05-14T00:05:14;101636.78;;;17.35;45.41
51313;BME280;37397;53.226;10.400;2023-05-14T00:07:41;101658.00;;;17.32;45.31
51313;BME280;37397;53.226;10.400;2023-05-14T00:10:07;101645.91;;;17.28;45.39
51313;BME280;37397;53.226;10.400;2023-05-14T00:12:34;101650.31;;;17.23;45.28
51313;BME280;37397;53.226;10.400;2023-05-14T00:15:01;101647.16;;;17.21;45.48
51313;BME280;37397;53.226;10.400;2023-05-14T00:17:27;101643.72;;;17.17;45.64
51313;BME280;37397;53.226;10.400;2023-05-14T00:19:54;101644.44;;;17.12;45.24
51313;BME280;37397;53.226;10.400;2023-05-14T00:22:21;101637.31;;;17.07;45.50
51313;BME280;37397;53.226;10.400;2023-05-14T00:24:47;101626.78;;;17.04;45.62
51313;BME280;37397;53.226;10.400;2023-05-14T00:27:14;101633.84;;;17.03;45.43
51313;BME280;37397;53.226;10.400;2023-05-14T00:29:40;101614.84;;;16.91;45.52
51313;BME280;37397;53.226;10.400;2023-05-14T00:32:07;101629.81;;;16.95;45.70
51313;BME280;37397;53.226;10.400;2023-05-14T00:34:33;101628.78;;;16.92;45.68
51313;BME280;37397;53.226;10.400;2023-05-14T00:37:00;101624.53;;;16.88;45.71
51313;BME280;37397;53.226;10.400;2023-05-14T00:39:27;101625.50;;;16.85;45.80
51313;BME280;37397;53.226;10.400;2023-05-14T00:41:53;101622.34;;;16.83;45.94
51313;BME280;37397;53.226;10.400;2023-05-14T00:44:20;101614.13;;;16.75;45.85
51313;BME280;37397;53.226;10.400;2023-05-14T00:46:46;101625.13;;;16.77;45.74
51313;BME280;37397;53.226;10.400;2023-05-14T00:49:13;101624.59;;;16.73;46.00
51313;BME280;37397;53.226;10.400;2023-05-14T00:51:40;101624.00;;;16.69;46.03
51313;BME280;37397;53.226;10.400;2023-05-14T00:54:07;101620.84;;;16.67;46.04
51313;BME280;37397;53.226;10.400;2023-05-14T00:56:34;101622.63;;;16.64;45.95
51313;BME280;37397;53.226;10.400;2023-05-14T00:59:01;101608.94;;;16.59;45.97
51313;BME280;37397;53.226;10.400;2023-05-14T01:01:27;101611.56;;;16.57;46.27
51313;BME280;37397;53.226;10.400;2023-05-14T01:03:54;101614.13;;;16.55;46.11
51313;BME280;37397;53.226;10.400;2023-05-14T01:06:29;101607.03;;;16.50;46.25
51313;BME280;37397;53.226;10.400;2023-05-14T01:09:37;101612.19;;;16.46;46.06
51313;BME280;37397;53.226;10.400;2023-05-14T01:12:01;101613.19;;;16.43;46.18
51313;BME280;37397;53.226;10.400;2023-05-14T01:17:03;101613.13;;;16.37;46.54
51313;BME280;37397;53.226;10.400;2023-05-14T01:19:40;101614.66;;;16.33;46.33
51313;BME280;37397;53.226;10.400;2023-05-14T01:22:07;101617.44;;;16.27;46.51
51313;BME280;37397;53.226;10.400;2023-05-14T01:24:33;101619.53;;;16.27;46.45
51313;BME280;37397;53.226;10.400;2023-05-14T01:27:11;101622.63;;;16.23;46.55
51313;BME280;37397;53.226;10.400;2023-05-14T01:29:44;101625.19;;;16.21;46.71
51313;BME280;37397;53.226;10.400;2023-05-14T01:32:16;101622.25;;;16.15;46.58
51313;BME280;37397;53.226;10.400;2023-05-14T01:34:44;101627.22;;;16.15;46.55
51313;BME280;37397;53.226;10.400;2023-05-14T01:37:13;101619.59;;;16.12;46.63
51313;BME280;37397;53.226;10.400;2023-05-14T01:39:41;101618.72;;;16.06;46.51
51313;BME280;37397;53.226;10.400;2023-05-14T01:42:08;101626.03;;;16.07;46.67
51313;BME280;37397;53.226;10.400;2023-05-14T01:44:35;101618.13;;;16.01;46.67
51313;BME280;37397;53.226;10.400;2023-05-14T01:47:01;101618.34;;;15.98;46.78
51313;BME280;37397;53.226;10.400;2023-05-14T01:49:28;101616.72;;;15.97;46.87
51313;BME280;37397;53.226;10.400;2023-05-14T01:51:55;101622.72;;;15.93;46.85
51313;BME280;37397;53.226;10.400;2023-05-14T01:54:22;101618.75;;;15.91;46.57
51313;BME280;37397;53.226;10.400;2023-05-14T01:56:48;101611.91;;;15.88;46.81
51313;BME280;37397;53.226;10.400;2023-05-14T01:59:15;101620.75;;;15.84;47.03
51313;BME280;37397;53.226;10.400;2023-05-14T02:01:42;101613.63;;;15.80;46.84
51313;BME280;37397;53.226;10.400;2023-05-14T02:04:09;101620.38;;;15.77;46.98
51313;BME280;37397;53.226;10.400;2023-05-14T02:06:35;101618.75;;;15.76;47.01
51313;BME280;37397;53.226;10.400;2023-05-14T02:09:03;101617.66;;;15.73;46.92
51313;BME280;37397;53.226;10.400;2023-05-14T02:11:30;101619.16;;;15.68;47.09
51313;BME280;37397;53.226;10.400;2023-05-14T02:13:56;101610.25;;;15.66;47.01
51313;BME280;37397;53.226;10.400;2023-05-14T02:16:23;101611.25;;;15.63;47.11
51313;BME280;37397;53.226;10.400;2023-05-14T02:18:50;101604.88;;;15.59;47.08
51313;BME280;37397;53.226;10.400;2023-05-14T02:21:16;101603.00;;;15.56;47.12
51313;BME280;37397;53.226;10.400;2023-05-14T02:23:43;101605.28;;;15.52;47.33
51313;BME280;37397;53.226;10.400;2023-05-14T02:26:10;101602.09;;;15.50;47.13
51313;BME280;37397;53.226;10.400;2023-05-14T02:28:36;101605.47;;;15.48;47.29
51313;BME280;37397;53.226;10.400;2023-05-14T02:31:03;101594.88;;;15.40;47.36
51313;BME280;37397;53.226;10.400;2023-05-14T02:33:29;101610.88;;;15.41;47.51
51313;BME280;37397;53.226;10.400;2023-05-14T02:35:57;101606.88;;;15.38;47.36
51313;BME280;37397;53.226;10.400;2023-05-14T02:38:25;101598.75;;;15.37;47.42
51313;BME280;37397;53.226;10.400;2023-05-14T02:40:51;101597.34;;;15.32;47.47
51313;BME280;37397;53.226;10.400;2023-05-14T02:43:18;101592.59;;;15.29;47.55
51313;BME280;37397;53.226;10.400;2023-05-14T02:45:44;101595.19;;;15.27;47.28
51313;BME280;37397;53.226;10.400;2023-05-14T02:48:11;101600.81;;;15.21;47.31
51313;BME280;37397;53.226;10.400;2023-05-14T02:50:37;101598.94;;;15.18;47.58
51313;BME280;37397;53.226;10.400;2023-05-14T02:53:04;101597.88;;;15.16;47.56
51313;BME280;37397;53.226;10.400;2023-05-14T02:55:30;101595.97;;;15.12;47.74
51313;BME280;37397;53.226;10.400;2023-05-14T02:57:57;101602.22;;;15.11;47.40
51313;BME280;37397;53.226;10.400;2023-05-14T03:00:24;101599.06;;;15.09;47.63
51313;BME280;37397;53.226;10.400;2023-05-14T03:02:51;101596.38;;;15.05;47.84
51313;BME280;37397;53.226;10.400;2023-05-14T03:05:19;101595.28;;;15.03;47.74
51313;BME280;37397;53.226;10.400;2023-05-14T03:07:45;101597.53;;;14.99;47.81
51313;BME280;37397;53.226;10.400;2023-05-14T03:10:12;101574.34;;;14.87;47.86
51313;BME280;37397;53.226;10.400;2023-05-14T03:12:38;101583.88;;;14.93;47.96
51313;BME280;37397;53.226;10.400;2023-05-14T03:15:05;101592.19;;;14.91;47.72
51313;BME280;37397;53.226;10.400;2023-05-14T03:17:32;101587.44;;;14.88;47.93
51313;BME280;37397;53.226;10.400;2023-05-14T03:19:59;101588.41;;;14.85;47.89
51313;BME280;37397;53.226;10.400;2023-05-14T03:22:25;101593.56;;;14.81;47.86
51313;BME280;37397;53.226;10.400;2023-05-14T03:24:52;101580.47;;;14.80;47.97
51313;BME280;37397;53.226;10.400;2023-05-14T03:27:18;101587.22;;;14.77;48.03
51313;BME280;37397;53.226;10.400;2023-05-14T03:29:45;101588.19;;;14.74;47.99
51313;BME280;37397;53.226;10.400;2023-05-14T03:32:12;101580.25;;;14.69;48.07
51313;BME280;37397;53.226;10.400;2023-05-14T03:34:38;101576.28;;;14.66;48.09
51313;BME280;37397;53.226;10.400;2023-05-14T03:37:05;101578.09;;;14.64;48.16
51313;BME280;37397;53.226;10.400;2023-05-14T03:39:32;101586.69;;;14.64;48.21
51313;BME280;37397;53.226;10.400;2023-05-14T03:41:58;101586.09;;;14.59;48.23
51313;BME280;37397;53.226;10.400;2023-05-14T03:44:25;101581.59;;;14.58;48.28
51313;BME280;37397;53.226;10.400;2023-05-14T03:46:52;101585.47;;;14.55;48.29
51313;BME280;37397;53.226;10.400;2023-05-14T03:49:18;101580.38;;;14.50;48.37
51313;BME280;37397;53.226;10.400;2023-05-14T03:51:45;101587.72;;;14.51;48.22
51313;BME280;37397;53.226;10.400;2023-05-14T03:54:12;101581.84;;;14.46;48.23
51313;BME280;37397;53.226;10.400;2023-05-14T03:56:38;101574.03;;;14.46;48.43
51313;BME280;37397;53.226;10.400;2023-05-14T03:59:04;101581.56;;;14.44;48.55
51313;BME280;37397;53.226;10.400;2023-05-14T04:01:31;101578.38;;;14.41;48.37
51313;BME280;37397;53.226;10.400;2023-05-14T04:03:58;101578.56;;;14.38;48.51
51313;BME280;37397;53.226;10.400;2023-05-14T04:06:24;101579.56;;;14.35;48.68
51313;BME280;37397;53.226;10.400;2023-05-14T04:08:51;101583.69;;;14.34;48.56
51313;BME280;37397;53.226;10.400;2023-05-14T04:11:18;101580.53;;;14.32;48.67
51313;BME280;37397;53.226;10.400;2023-05-14T04:13:44;101583.88;;;14.30;48.72
51313;BME280;37397;53.226;10.400;2023-05-14T04:16:10;101572.88;;;14.29;48.62
51313;BME280;37397;53.226;10.400;2023-05-14T04:18:37;101584.09;;;14.27;48.81
51313;BME280;37397;53.226;10.400;2023-05-14T04:21:04;101577.53;;;14.26;48.87
51313;BME280;37397;53.226;10.400;2023-05-14T04:23:30;101577.22;;;14.24;48.79
51313;BME280;37397;53.226;10.400;2023-05-14T04:26:00;101576.94;;;14.22;48.88
51313;BME280;37397;53.226;10.400;2023-05-14T04:28:26;101576.13;;;14.21;48.83
51313;BME280;37397;53.226;10.400;2023-05-14T04:30:52;101575.81;;;14.19;48.96
51313;BME280;37397;53.226;10.400;2023-05-14T04:33:19;101581.25;;;14.17;49.06
51313;BME280;37397;53.226;10.400;2023-05-14T04:35:46;101579.66;;;14.16;49.00
51313;BME280;37397;53.226;10.400;2023-05-14T04:38:12;101570.75;;;14.14;49.05
51313;BME280;37397;53.226;10.400;2023-05-14T04:40:39;101571.53;;;14.15;49.18
51313;BME280;37397;53.226;10.400;2023-05-14T04:43:09;101575.72;;;14.14;49.13
51313;BME280;37397;53.226;10.400;2023-05-14T04:45:36;101573.31;;;14.12;49.21
51313;BME280;37397;53.226;10.400;2023-05-14T04:48:03;101574.59;;;14.11;49.35
51313;BME280;37397;53.226;10.400;2023-05-14T04:50:30;101573.00;;;14.10;49.29
51313;BME280;37397;53.226;10.400;2023-05-14T04:52:56;101576.69;;;14.11;49.40
51313;BME280;37397;53.226;10.400;2023-05-14T04:55:23;101568.56;;;14.09;49.49
51313;BME280;37397;53.226;10.400;2023-05-14T04:57:49;101578.75;;;14.10;49.43
51313;BME280;37397;53.226;10.400;2023-05-14T05:00:16;101580.03;;;14.09;49.44
51313;BME280;37397;53.226;10.400;2023-05-14T05:02:43;101573.50;;;14.09;49.64
51313;BME280;37397;53.226;10.400;2023-05-14T05:05:09;101580.03;;;14.09;49.61
51313;BME280;37397;53.226;10.400;2023-05-14T05:07:36;101569.84;;;14.08;49.73
51313;BME280;37397;53.226;10.400;2023-05-14T05:10:02;101577.66;;;14.08;49.77
51313;BME280;37397;53.226;10.400;2023-05-14T05:12:29;101573.81;;;14.11;49.88
51313;BME280;37397;53.226;10.400;2023-05-14T05:14:58;101567.25;;;14.10;50.02
51313;BME280;37397;53.226;10.400;2023-05-14T05:17:24;101566.00;;;14.11;49.97
51313;BME280;37397;53.226;10.400;2023-05-14T05:19:51;101568.84;;;14.11;49.98
51313;BME280;37397;53.226;10.400;2023-05-14T05:22:18;101569.97;;;14.14;50.11
51313;BME280;37397;53.226;10.400;2023-05-14T05:24:45;101578.88;;;14.16;50.28
51313;BME280;37397;53.226;10.400;2023-05-14T05:27:14;101578.38;;;14.17;50.09
51313;BME280;37397;53.226;10.400;2023-05-14T05:29:40;101570.56;;;14.18;50.19
51313;BME280;37397;53.226;10.400;2023-05-14T05:32:07;101573.75;;;14.20;50.32
51313;BME280;37397;53.226;10.400;2023-05-14T05:34:33;101574.84;;;14.22;50.21
51313;BME280;37397;53.226;10.400;2023-05-14T05:37:01;101570.38;;;14.21;50.46
51313;BME280;37397;53.226;10.400;2023-05-14T05:39:27;101580.88;;;14.25;50.29
51313;BME280;37397;53.226;10.400;2023-05-14T05:42:00;101569.72;;;14.27;50.40
51313;BME280;37397;53.226;10.400;2023-05-14T05:44:30;101570.03;;;14.29;50.65
51313;BME280;37397;53.226;10.400;2023-05-14T05:46:56;101576.34;;;14.33;50.61
51313;BME280;37397;53.226;10.400;2023-05-14T05:49:23;101568.06;;;14.35;50.60
51313;BME280;37397;53.226;10.400;2023-05-14T05:51:49;101568.38;;;14.37;50.57
51313;BME280;37397;53.226;10.400;2023-05-14T05:54:17;101577.59;;;14.41;50.63
51313;BME280;37397;53.226;10.400;2023-05-14T05:56:43;101570.25;;;14.40;50.62
51313;BME280;37397;53.226;10.400;2023-05-14T05:59:10;101565.13;;;14.44;50.71
51313;BME280;37397;53.226;10.400;2023-05-14T06:01:36;101562.06;;;14.48;50.64
51313;BME280;37397;53.226;10.400;2023-05-14T06:04:03;101576.22;;;14.51;50.53
51313;BME280;37397;53.226;10.400;2023-05-14T06:06:31;101573.66;;;14.53;50.48
51313;BME280;37397;53.226;10.400;2023-05-14T06:08:58;101576.31;;;14.57;50.37
51313;BME280;37397;53.226;10.400;2023-05-14T06:11:47;101576.19;;;14.61;50.38
51313;BME280;37397;53.226;10.400;2023-05-14T06:14:14;101576.78;;;14.65;50.45
51313;BME280;37397;53.226;10.400;2023-05-14T06:16:40;101574.22;;;14.67;50.53
51313;BME280;37397;53.226;10.400;2023-05-14T06:19:07;101570.66;;;14.72;50.75
51313;BME280;37397;53.226;10.400;2023-05-14T06:21:33;101570.97;;;14.74;50.85
51313;BME280;37397;53.226;10.400;2023-05-14T06:24:00;101570.25;;;14.79;50.72
51313;BME280;37397;53.226;10.400;2023-05-14T06:26:26;101567.72;;;14.81;50.83
51313;BME280;37397;53.226;10.400;2023-05-14T06:28:53;101571.94;;;14.86;51.03
51313;BME280;37397;53.226;10.400;2023-05-14T06:31:19;101572.56;;;14.90;50.94
51313;BME280;37397;53.226;10.400;2023-05-14T06:33:46;101560.88;;;14.93;51.02
51313;BME280;37397;53.226;10.400;2023-05-14T06:36:12;101564.34;;;14.98;51.26
51313;BME280;37397;53.226;10.400;2023-05-14T06:38:39;101565.25;;;15.04;51.03
51313;BME280;37397;53.226;10.400;2023-05-14T06:41:05;101568.72;;;15.08;51.18
51313;BME280;37397;53.226;10.400;2023-05-14T06:43:32;101560.69;;;15.12;51.49
51313;BME280;37397;53.226;10.400;2023-05-14T06:45:58;101560.00;;;15.17;51.64
51313;BME280;37397;53.226;10.400;2023-05-14T06:48:25;101559.00;;;15.20;51.77
51313;BME280;37397;53.226;10.400;2023-05-14T06:50:53;101558.50;;;15.22;51.59
51313;BME280;37397;53.226;10.400;2023-05-14T06:53:19;101563.06;;;15.28;51.57
51313;BME280;37397;53.226;10.400;2023-05-14T06:55:46;101556.31;;;15.31;51.43
51313;BME280;37397;53.226;10.400;2023-05-14T06:58:13;101555.59;;;15.37;51.78
51313;BME280;37397;53.226;10.400;2023-05-14T07:00:39;101553.34;;;15.41;51.70
51313;BME280;37397;53.226;10.400;2023-05-14T07:03:06;101548.66;;;15.43;51.73
51313;BME280;37397;53.226;10.400;2023-05-14T07:05:32;101544.28;;;15.48;51.97
51313;BME280;37397;53.226;10.400;2023-05-14T07:07:59;101544.56;;;15.50;52.01
51313;BME280;37397;53.226;10.400;2023-05-14T07:10:25;101544.69;;;15.56;52.04
51313;BME280;37397;53.226;10.400;2023-05-14T07:12:52;101539.22;;;15.58;52.25
51313;BME280;37397;53.226;10.400;2023-05-14T07:15:18;101537.22;;;15.64;52.26
51313;BME280;37397;53.226;10.400;2023-05-14T07:17:45;101528.88;;;15.66;52.44
51313;BME280;37397;53.226;10.400;2023-05-14T07:20:12;101531.84;;;15.72;52.53
51313;BME280;37397;53.226;10.400;2023-05-14T07:22:38;101526.66;;;15.76;52.40
51313;BME280;37397;53.226;10.400;2023-05-14T07:25:05;101527.28;;;15.80;52.61
51313;BME280;37397;53.226;10.400;2023-05-14T07:27:31;101523.69;;;15.85;52.48
51313;BME280;37397;53.226;10.400;2023-05-14T07:29:58;101521.41;;;15.89;52.56
51313;BME280;37397;53.226;10.400;2023-05-14T07:32:24;101520.34;;;15.92;52.47
51313;BME280;37397;53.226;10.400;2023-05-14T07:34:51;101516.47;;;15.95;52.30
51313;BME280;37397;53.226;10.400;2023-05-14T07:37:17;101511.31;;;15.99;52.13
51313;BME280;37397;53.226;10.400;2023-05-14T07:39:44;101503.75;;;16.02;52.03
51313;BME280;37397;53.226;10.400;2023-05-14T07:42:10;101506.44;;;16.06;51.82
51313;BME280;37397;53.226;10.400;2023-05-14T07:44:50;101503.09;;;16.13;51.66
51313;BME280;37397;53.226;10.400;2023-05-14T07:47:17;101504.19;;;16.15;51.41
51313;BME280;37397;53.226;10.400;2023-05-14T07:49:43;101499.81;;;16.20;51.42
51313;BME280;37397;53.226;10.400;2023-05-14T07:52:10;101503.22;;;16.24;51.44
51313;BME280;37397;53.226;10.400;2023-05-14T07:54:36;101495.97;;;16.29;51.22
51313;BME280;37397;53.226;10.400;2023-05-14T07:57:03;101494.44;;;16.33;51.18
51313;BME280;37397;53.226;10.400;2023-05-14T07:59:29;101492.16;;;16.37;50.83
51313;BME280;37397;53.226;10.400;2023-05-14T08:01:56;101486.66;;;16.39;50.84
51313;BME280;37397;53.226;10.400;2023-05-14T08:04:23;101490.59;;;16.42;50.79
51313;BME280;37397;53.226;10.400;2023-05-14T08:06:50;101485.44;;;16.46;50.69
51313;BME280;37397;53.226;10.400;2023-05-14T08:09:16;101488.38;;;16.52;50.55
51313;BME280;37397;53.226;10.400;2023-05-14T08:11:43;101493.09;;;16.55;50.71
51313;BME280;37397;53.226;10.400;2023-05-14T08:14:09;101476.41;;;16.59;50.67
51313;BME280;37397;53.226;10.400;2023-05-14T08:16:35;101487.69;;;16.63;50.40
51313;BME280;37397;53.226;10.400;2023-05-14T08:19:02;101488.78;;;16.65;50.53
51313;BME280;37397;53.226;10.400;2023-05-14T08:21:28;101488.81;;;16.71;50.31
51313;BME280;37397;53.226;10.400;2023-05-14T08:23:55;101487.00;;;16.73;50.22
51313;BME280;37397;53.226;10.400;2023-05-14T08:26:21;101476.03;;;16.77;50.15
51313;BME280;37397;53.226;10.400;2023-05-14T08:28:48;101487.34;;;16.81;50.13
51313;BME280;37397;53.226;10.400;2023-05-14T08:31:14;101482.97;;;16.86;50.12
51313;BME280;37397;53.226;10.400;2023-05-14T08:33:41;101483.25;;;16.88;49.79
51313;BME280;37397;53.226;10.400;2023-05-14T08:36:07;101480.66;;;16.90;49.72
51313;BME280;37397;53.226;10.400;2023-05-14T08:38:34;101475.22;;;16.98;49.53
51313;BME280;37397;53.226;10.400;2023-05-14T08:41:02;101470.78;;;17.02;49.42
51313;BME280;37397;53.226;10.400;2023-05-14T08:44:06;101472.34;;;17.03;49.42
51313;BME280;37397;53.226;10.400;2023-05-14T08:46:35;101467.44;;;17.09;49.37
51313;BME280;37397;53.226;10.400;2023-05-14T08:52:02;101465.38;;;17.16;49.44
51313;BME280;37397;53.226;10.400;2023-05-14T08:54:29;101460.69;;;17.18;49.56
51313;BME280;37397;53.226;10.400;2023-05-14T08:56:57;101469.38;;;17.24;49.12
51313;BME280;37397;53.226;10.400;2023-05-14T08:59:25;101450.78;;;17.25;49.29
51313;BME280;37397;53.226;10.400;2023-05-14T09:01:53;101454.50;;;17.31;48.62
51313;BME280;37397;53.226;10.400;2023-05-14T09:04:21;101455.84;;;17.36;48.72
51313;BME280;37397;53.226;10.400;2023-05-14T09:06:50;101454.00;;;17.38;48.33
51313;BME280;37397;53.226;10.400;2023-05-14T09:09:17;101456.66;;;17.42;48.34
51313;BME280;37397;53.226;10.400;2023-05-14T09:11:51;101450.38;;;17.43;48.14
51313;BME280;37397;53.226;10.400;2023-05-14T09:14:18;101452.22;;;17.46;48.05
51313;BME280;37397;53.226;10.400;2023-05-14T09:16:46;101438.34;;;17.50;47.82
51313;BME280;37397;53.226;10.400;2023-05-14T09:19:14;101444.66;;;17.55;47.88
51313;BME280;37397;53.226;10.400;2023-05-14T09:21:43;101444.94;;;17.57;48.00
51313;BME280;37397;53.226;10.400;2023-05-14T09:24:21;101439.19;;;17.62;47.83
51313;BME280;37397;53.226;10.400;2023-05-14T09:26:57;101433.16;;;17.66;47.85
51313;BME280;37397;53.226;10.400;2023-05-14T09:29:25;101428.72;;;17.71;47.87
51313;BME280;37397;53.226;10.400;2023-05-14T09:31:53;101422.97;;;17.71;47.73
51313;BME280;37397;53.226;10.400;2023-05-14T09:34:27;101426.66;;;17.77;47.59
51313;BME280;37397;53.226;10.400;2023-05-14T09:37:02;101423.28;;;17.78;47.23
51313;BME280;37397;53.226;10.400;2023-05-14T09:39:29;101418.81;;;17.83;47.41
51313;BME280;37397;53.226;10.400;2023-05-14T09:41:56;101412.00;;;17.86;47.10
51313;BME280;37397;53.226;10.400;2023-05-14T09:44:23;101416.53;;;17.93;47.50
51313;BME280;37397;53.226;10.400;2023-05-14T09:46:51;101411.84;;;18.01;47.17
51313;BME280;37397;53.226;10.400;2023-05-14T09:49:18;101409.50;;;18.05;47.38
51313;BME280;37397;53.226;10.400;2023-05-14T09:51:45;101411.09;;;18.12;47.11
51313;BME280;37397;53.226;10.400;2023-05-14T09:54:11;101406.91;;;18.18;47.51
51313;BME280;37397;53.226;10.400;2023-05-14T09:56:38;101413.75;;;18.27;47.99
51313;BME280;37397;53.226;10.400;2023-05-14T09:59:07;101411.91;;;18.35;47.74
51313;BME280;37397;53.226;10.400;2023-05-14T10:01:34;101411.41;;;18.42;48.39
51313;BME280;37397;53.226;10.400;2023-05-14T10:04:02;101403.00;;;18.50;48.74
51313;BME280;37397;53.226;10.400;2023-05-14T10:06:38;101402.50;;;18.57;47.44
51313;BME280;37397;53.226;10.400;2023-05-14T10:09:12;101399.88;;;18.65;47.64
51313;BME280;37397;53.226;10.400;2023-05-14T10:11:42;101403.56;;;18.71;47.21
51313;BME280;37397;53.226;10.400;2023-05-14T10:14:16;101396.47;;;18.77;47.22
51313;BME280;37397;53.226;10.400;2023-05-14T10:16:49;101395.94;;;18.85;47.34
51313;BME280;37397;53.226;10.400;2023-05-14T10:19:19;101397.25;;;18.89;47.37
51313;BME280;37397;53.226;10.400;2023-05-14T10:21:52;101393.56;;;18.94;47.42
51313;BME280;37397;53.226;10.400;2023-05-14T10:24:21;101403.03;;;19.01;47.34
51313;BME280;37397;53.226;10.400;2023-05-14T10:26:48;101403.56;;;19.05;46.08
51313;BME280;37397;53.226;10.400;2023-05-14T10:29:15;101401.19;;;19.09;46.22
51313;BME280;37397;53.226;10.400;2023-05-14T10:31:54;101399.88;;;19.10;45.92
51313;BME280;37397;53.226;10.400;2023-05-14T10:36:59;101379.34;;;19.19;45.63
51313;BME280;37397;53.226;10.400;2023-05-14T10:42:11;101378.28;;;19.17;45.18
51313;BME280;37397;53.226;10.400;2023-05-14T10:44:44;101373.28;;;19.23;45.54
51313;BME280;37397;53.226;10.400;2023-05-14T10:47:13;101365.91;;;19.27;45.11
51313;BME280;37397;53.226;10.400;2023-05-14T10:49:41;101369.59;;;19.34;45.31
51313;BME280;37397;53.226;10.400;2023-05-14T10:52:10;101371.38;;;19.37;44.75
51313;BME280;37397;53.226;10.400;2023-05-14T10:54:37;101367.72;;;19.42;44.66
51313;BME280;37397;53.226;10.400;2023-05-14T10:57:09;101364.00;;;19.47;44.83
51313;BME280;37397;53.226;10.400;2023-05-14T10:59:40;101361.34;;;19.49;44.99
51313;BME280;37397;53.226;10.400;2023-05-14T11:02:18;101364.50;;;19.51;44.44
51313;BME280;37397;53.226;10.400;2023-05-14T11:07:27;101366.28;;;19.65;44.95
51313;BME280;37397;53.226;10.400;2023-05-14T11:10:00;101358.13;;;19.70;44.86
51313;BME280;37397;53.226;10.400;2023-05-14T11:12:27;101359.41;;;19.74;44.42
51313;BME280;37397;53.226;10.400;2023-05-14T11:14:59;101361.78;;;19.81;44.24
51313;BME280;37397;53.226;10.400;2023-05-14T11:17:26;101367.28;;;19.85;43.86
51313;BME280;37397;53.226;10.400;2023-05-14T11:19:54;101354.63;;;19.88;43.38
51313;BME280;37397;53.226;10.400;2023-05-14T11:22:21;101355.13;;;19.92;43.64
51313;BME280;37397;53.226;10.400;2023-05-14T11:24:48;101356.19;;;19.95;43.95
51313;BME280;37397;53.226;10.400;2023-05-14T11:27:15;101348.53;;;19.97;43.38
51313;BME280;37397;53.226;10.400;2023-05-14T11:29:44;101341.66;;;20.00;43.25
51313;BME280;37397;53.226;10.400;2023-05-14T11:32:12;101340.88;;;20.00;43.61
51313;BME280;37397;53.226;10.400;2023-05-14T11:34:39;101344.25;;;20.04;43.39
51313;BME280;37397;53.226;10.400;2023-05-14T11:37:07;101340.81;;;20.06;43.60
51313;BME280;37397;53.226;10.400;2023-05-14T11:39:35;101335.03;;;20.06;43.70
51313;BME280;37397;53.226;10.400;2023-05-14T11:42:10;101345.56;;;20.09;43.12
51313;BME280;37397;53.226;10.400;2023-05-14T11:44:42;101338.44;;;20.10;44.02
51313;BME280;37397;53.226;10.400;2023-05-14T11:47:11;101334.75;;;20.09;43.00
51313;BME280;37397;53.226;10.400;2023-05-14T11:49:38;101340.00;;;20.11;42.98
51313;BME280;37397;53.226;10.400;2023-05-14T11:52:06;101332.09;;;20.11;43.21
51313;BME280;37397;53.226;10.400;2023-05-14T11:54:33;101337.38;;;20.13;43.51
51313;BME280;37397;53.226;10.400;2023-05-14T11:57:08;101337.38;;;20.13;43.52
51313;BME280;37397;53.226;10.400;2023-05-14T11:59:36;101332.88;;;20.12;43.21
51313;BME280;37397;53.226;10.400;2023-05-14T12:02:03;101331.03;;;20.14;43.26
51313;BME280;37397;53.226;10.400;2023-05-14T12:04:31;101328.13;;;20.14;43.63
51313;BME280;37397;53.226;10.400;2023-05-14T12:06:59;101326.03;;;20.15;43.25
51313;BME280;37397;53.226;10.400;2023-05-14T12:09:25;101323.13;;;20.15;43.41
51313;BME280;37397;53.226;10.400;2023-05-14T12:11:52;101327.34;;;20.14;43.22
51313;BME280;37397;53.226;10.400;2023-05-14T12:14:23;101329.44;;;20.13;44.10
51313;BME280;37397;53.226;10.400;2023-05-14T12:16:49;101330.00;;;20.12;43.92
51313;BME280;37397;53.226;10.400;2023-05-14T12:19:18;101325.78;;;20.13;44.45
51313;BME280;37397;53.226;10.400;2023-05-14T12:21:47;101328.69;;;20.13;44.51
51313;BME280;37397;53.226;10.400;2023-05-14T12:24:17;101331.56;;;20.13;44.49
51313;BME280;37397;53.226;10.400;2023-05-14T12:26:48;101340.50;;;20.15;44.96
51313;BME280;37397;53.226;10.400;2023-05-14T12:29:16;101330.78;;;20.12;44.85
51313;BME280;37397;53.226;10.400;2023-05-14T12:31:46;101323.41;;;20.11;45.37
51313;BME280;37397;53.226;10.400;2023-05-14T12:34:14;101322.34;;;20.14;45.35
51313;BME280;37397;53.226;10.400;2023-05-14T12:36:40;101317.31;;;20.15;45.74
51313;BME280;37397;53.226;10.400;2023-05-14T12:39:08;101306.28;;;20.13;45.49
51313;BME280;37397;53.226;10.400;2023-05-14T12:41:35;101306.50;;;20.15;45.76
51313;BME280;37397;53.226;10.400;2023-05-14T12:44:04;101306.50;;;20.15;45.77
51313;BME280;37397;53.226;10.400;2023-05-14T12:46:31;101307.31;;;20.16;45.93
51313;BME280;37397;53.226;10.400;2023-05-14T12:48:59;101297.28;;;20.17;46.11
51313;BME280;37397;53.226;10.400;2023-05-14T12:51:26;101289.94;;;20.16;45.99
51313;BME280;37397;53.226;10.400;2023-05-14T12:53:52;101287.28;;;20.18;46.25
51313;BME280;37397;53.226;10.400;2023-05-14T12:56:19;101281.47;;;20.18;46.48